Time;durP1;ratioP1;P1;durP2;ratioP2;P2;SDS_P1;SDS_P2;PMS_P1;PMS_P2;Temp;Humidity;BMP_temperature;BMP_pressure;BME280_temperature;BME280_humidity;BME280_pressure;Samples;Min_cycle;Max_cycle;Signal;HPM_P1;HPM_P2
2023/05/22 00:00:22;;;;;;;;;;;18.40;99.90;;;;;;8371956;28;20268;-72
2023/05/22 00:14:30;;;;;;;;;;;18.00;99.90;;;;;;8373124;28;19931;-73
2023/05/22 00:18:32;;;;;;;;;;;18.00;99.90;;;;;;8383746;28;20010;-73
2023/05/22 00:22:36;;;;;;;;;;;18.00;99.90;;;;;;8391997;28;20472;-73
2023/05/22 00:26:38;;;;;;;;;;;18.00;99.90;;;;;;8379355;28;20304;-73
2023/05/22 00:30:40;;;;;;;;;;;18.00;99.90;;;;;;8390429;28;19955;-72
2023/05/22 00:34:42;;;;;;;;;;;18.00;99.90;;;;;;8386015;28;19932;-72
2023/05/22 00:38:44;;;;;;;;;;;17.90;99.90;;;;;;8394443;28;19976;-73
2023/05/22 00:42:45;;;;;;;;;;;17.90;99.90;;;;;;8401369;28;19982;-73
2023/05/22 00:46:47;;;;;;;;;;;17.90;99.90;;;;;;8390059;28;20384;-73
2023/05/22 00:50:50;;;;;;;;;;;17.90;99.90;;;;;;8394767;28;19931;-73
2023/05/22 00:54:52;;;;;;;;;;;17.90;99.90;;;;;;8390101;28;19925;-73
2023/05/22 00:58:54;;;;;;;;;;;18.00;99.90;;;;;;8387153;28;19973;-73
2023/05/22 01:02:56;;;;;;;;;;;18.00;99.90;;;;;;8390157;28;19928;-72
2023/05/22 01:07:01;;;;;;;;;;;18.00;99.90;;;;;;8385641;28;19951;-73
2023/05/22 01:11:07;;;;;;;;;;;18.00;99.90;;;;;;8399846;28;19972;-72
2023/05/22 01:15:24;;;;;;;;;;;18.00;99.90;;;;;;8394401;28;19925;-73
2023/05/22 01:19:46;;;;;;;;;;;18.00;99.90;;;;;;8371561;28;20287;-72
2023/05/22 01:24:06;;;;;;;;;;;18.00;99.90;;;;;;8394569;28;19932;-72
2023/05/22 01:28:27;;;;;;;;;;;18.00;99.90;;;;;;8387112;28;19963;-73
2023/05/22 01:32:30;;;;;;;;;;;18.10;99.90;;;;;;8383261;28;20312;-72
2023/05/22 01:36:35;;;;;;;;;;;18.10;99.90;;;;;;8380433;28;20384;-72
2023/05/22 01:40:37;;;;;;;;;;;18.00;99.90;;;;;;8369636;28;19928;-72
2023/05/22 01:44:40;;;;;;;;;;;18.00;99.90;;;;;;8386955;28;19924;-72
2023/05/22 01:48:41;;;;;;;;;;;18.00;99.90;;;;;;8380087;28;19982;-72
2023/05/22 01:52:52;;;;;;;;;;;18.00;99.90;;;;;;8396791;28;19928;-72
2023/05/22 01:57:01;;;;;;;;;;;17.90;99.90;;;;;;8392795;28;19933;-72
2023/05/22 02:01:03;;;;;;;;;;;17.90;99.90;;;;;;8402792;28;19928;-71
2023/05/22 02:05:07;;;;;;;;;;;17.90;99.90;;;;;;8365822;28;20046;-72
2023/05/22 02:09:09;;;;;;;;;;;17.80;99.90;;;;;;8391692;28;19924;-72
2023/05/22 02:13:11;;;;;;;;;;;17.70;99.90;;;;;;8392943;28;19933;-72
2023/05/22 02:17:13;;;;;;;;;;;17.60;99.90;;;;;;8380780;28;19924;-72
2023/05/22 02:21:14;;;;;;;;;;;17.60;99.90;;;;;;8380496;28;19925;-71
2023/05/22 02:25:16;;;;;;;;;;;17.50;99.90;;;;;;8404944;28;19924;-72
2023/05/22 02:29:18;;;;;;;;;;;17.40;99.90;;;;;;8381058;28;19928;-72
2023/05/22 02:33:20;;;;;;;;;;;17.30;99.90;;;;;;8394259;28;20372;-72
2023/05/22 02:37:21;;;;;;;;;;;17.20;99.90;;;;;;8398810;28;20344;-71
2023/05/22 02:41:23;;;;;;;;;;;17.10;99.90;;;;;;8390317;28;19929;-72
2023/05/22 02:45:25;;;;;;;;;;;17.10;99.90;;;;;;8390231;28;19928;-71
2023/05/22 02:49:26;;;;;;;;;;;17.10;99.90;;;;;;8393916;28;20261;-72
2023/05/22 02:53:28;;;;;;;;;;;17.00;99.90;;;;;;8389570;28;19932;-72
2023/05/22 02:57:30;;;;;;;;;;;17.10;99.90;;;;;;8393376;28;19924;-72
2023/05/22 03:01:32;;;;;;;;;;;17.10;99.90;;;;;;8394832;28;19977;-72
2023/05/22 03:05:33;;;;;;;;;;;17.10;99.90;;;;;;8392741;28;20326;-72
2023/05/22 03:09:35;;;;;;;;;;;17.00;99.90;;;;;;8396786;28;19933;-72
2023/05/22 03:13:37;;;;;;;;;;;17.00;99.90;;;;;;8387038;28;19978;-72
2023/05/22 03:17:38;;;;;;;;;;;17.00;99.90;;;;;;8352665;28;20636;-72
2023/05/22 03:21:40;;;;;;;;;;;17.00;99.90;;;;;;8394649;28;19938;-72
2023/05/22 03:25:42;;;;;;;;;;;17.00;99.90;;;;;;8397282;28;20225;-72
2023/05/22 03:29:43;;;;;;;;;;;16.90;99.90;;;;;;8382098;28;20296;-72
2023/05/22 03:33:45;;;;;;;;;;;16.80;99.90;;;;;;8387902;28;20031;-72
2023/05/22 03:37:47;;;;;;;;;;;16.70;99.90;;;;;;8381365;28;19971;-72
2023/05/22 03:41:48;;;;;;;;;;;16.60;99.90;;;;;;8396228;28;19928;-72
2023/05/22 03:45:50;;;;;;;;;;;16.50;99.90;;;;;;8389340;28;20342;-73
2023/05/22 03:49:52;;;;;;;;;;;16.40;99.90;;;;;;8376286;28;20019;-73
2023/05/22 03:53:53;;;;;;;;;;;16.40;99.90;;;;;;8400276;28;19933;-74
2023/05/22 03:57:55;;;;;;;;;;;16.50;99.90;;;;;;8387732;28;20388;-73
2023/05/22 04:01:57;;;;;;;;;;;16.50;99.90;;;;;;8390985;28;19928;-73
2023/05/22 04:05:58;;;;;;;;;;;16.60;99.90;;;;;;8390238;28;19924;-73
2023/05/22 04:10:01;;;;;;;;;;;16.60;99.90;;;;;;8393137;28;19924;-73
2023/05/22 04:14:02;;;;;;;;;;;16.60;99.90;;;;;;8394577;28;19928;-73
2023/05/22 04:18:04;;;;;;;;;;;16.60;99.90;;;;;;8395450;28;20307;-73
2023/05/22 04:22:06;;;;;;;;;;;16.60;99.90;;;;;;8372431;28;19924;-73
2023/05/22 04:26:08;;;;;;;;;;;16.60;99.90;;;;;;8374813;28;19940;-74
2023/05/22 04:30:09;;;;;;;;;;;16.60;99.90;;;;;;8395523;28;20321;-74
2023/05/22 04:34:13;;;;;;;;;;;16.60;99.90;;;;;;8374959;28;20383;-73
2023/05/22 04:38:17;;;;;;;;;;;16.60;99.90;;;;;;8391914;28;20288;-74
2023/05/22 04:42:19;;;;;;;;;;;16.60;99.90;;;;;;8397884;28;19928;-74
2023/05/22 04:46:21;;;;;;;;;;;16.60;99.90;;;;;;8386501;28;19924;-74
2023/05/22 04:50:23;;;;;;;;;;;16.50;99.90;;;;;;8397186;28;19970;-74
2023/05/22 04:54:25;;;;;;;;;;;16.40;99.90;;;;;;8383346;28;19984;-74
2023/05/22 04:58:27;;;;;;;;;;;16.40;99.90;;;;;;8368251;28;19931;-75
2023/05/22 05:02:28;;;;;;;;;;;16.40;99.90;;;;;;8369258;28;20352;-73
2023/05/22 05:06:30;;;;;;;;;;;16.40;99.90;;;;;;8362971;28;20282;-74
2023/05/22 05:10:32;;;;;;;;;;;16.40;99.90;;;;;;8385428;28;19925;-74
2023/05/22 05:14:34;;;;;;;;;;;16.40;99.90;;;;;;8389288;28;19936;-73
2023/05/22 05:18:35;;;;;;;;;;;16.50;99.90;;;;;;8391602;28;19948;-73
2023/05/22 05:22:38;;;;;;;;;;;16.50;99.90;;;;;;8394822;28;19928;-73
2023/05/22 05:26:40;;;;;;;;;;;16.60;99.90;;;;;;8396198;28;19928;-74
2023/05/22 05:30:41;;;;;;;;;;;16.60;99.90;;;;;;8395333;28;19928;-73
2023/05/22 05:34:43;;;;;;;;;;;16.60;99.90;;;;;;8375532;28;19924;-74
2023/05/22 05:38:45;;;;;;;;;;;16.70;99.90;;;;;;8390120;28;19939;-73
2023/05/22 05:42:46;;;;;;;;;;;16.70;99.90;;;;;;8392240;28;19932;-74
2023/05/22 05:46:48;;;;;;;;;;;16.70;99.90;;;;;;8385063;28;19999;-74
2023/05/22 05:50:50;;;;;;;;;;;16.80;99.90;;;;;;8379757;28;19933;-74
2023/05/22 05:54:51;;;;;;;;;;;16.90;99.90;;;;;;8393798;28;19955;-74
2023/05/22 05:58:53;;;;;;;;;;;17.00;99.90;;;;;;8368240;28;19978;-73
2023/05/22 06:02:55;;;;;;;;;;;17.10;99.90;;;;;;8391188;28;19924;-73
2023/05/22 06:06:56;;;;;;;;;;;17.20;99.90;;;;;;8371885;28;20376;-74
2023/05/22 06:10:58;;;;;;;;;;;17.30;99.90;;;;;;8390555;28;20288;-74
2023/05/22 06:15:00;;;;;;;;;;;17.30;99.90;;;;;;8384669;28;19977;-74
2023/05/22 06:19:03;;;;;;;;;;;17.50;99.90;;;;;;8387502;28;20376;-74
2023/05/22 06:23:04;;;;;;;;;;;17.60;99.90;;;;;;8392071;28;19924;-74
2023/05/22 06:27:06;;;;;;;;;;;17.70;99.90;;;;;;8389251;28;20372;-74
2023/05/22 06:31:08;;;;;;;;;;;17.80;99.90;;;;;;8395059;28;19928;-74
2023/05/22 06:35:10;;;;;;;;;;;17.90;99.90;;;;;;8391401;28;19973;-75
2023/05/22 06:39:12;;;;;;;;;;;18.00;99.90;;;;;;8393866;28;19936;-74
2023/05/22 06:43:14;;;;;;;;;;;18.00;99.90;;;;;;8390433;28;19976;-75
2023/05/22 06:47:15;;;;;;;;;;;18.10;99.90;;;;;;8377481;28;19924;-74
2023/05/22 06:51:17;;;;;;;;;;;18.00;99.90;;;;;;8386021;28;19924;-74
2023/05/22 06:55:19;;;;;;;;;;;18.10;99.90;;;;;;8383243;28;19940;-74
2023/05/22 06:59:20;;;;;;;;;;;18.10;99.90;;;;;;8397310;28;19924;-74
2023/05/22 07:03:22;;;;;;;;;;;18.20;99.90;;;;;;8367682;28;19933;-74
2023/05/22 07:07:24;;;;;;;;;;;18.20;99.90;;;;;;8377954;28;19928;-74
2023/05/22 07:11:26;;;;;;;;;;;18.20;99.90;;;;;;8388826;28;20368;-74
2023/05/22 07:15:28;;;;;;;;;;;18.30;99.90;;;;;;8390532;28;20380;-74
2023/05/22 07:19:29;;;;;;;;;;;18.40;99.90;;;;;;8391594;28;19929;-75
2023/05/22 07:23:31;;;;;;;;;;;18.50;99.90;;;;;;8384457;28;19971;-74
2023/05/22 07:27:33;;;;;;;;;;;18.50;99.90;;;;;;8387902;28;19929;-75
2023/05/22 07:31:35;;;;;;;;;;;18.60;99.90;;;;;;8371022;28;19971;-74
2023/05/22 07:35:37;;;;;;;;;;;18.70;99.90;;;;;;8384498;28;19932;-74
2023/05/22 07:39:39;;;;;;;;;;;18.90;99.90;;;;;;8388752;28;19931;-74
2023/05/22 07:43:40;;;;;;;;;;;19.00;99.90;;;;;;8372638;28;19925;-75
2023/05/22 07:47:42;;;;;;;;;;;19.00;99.90;;;;;;8374407;28;19925;-74
2023/05/22 07:51:44;;;;;;;;;;;19.10;99.90;;;;;;8393341;28;19935;-74
2023/05/22 07:55:46;;;;;;;;;;;19.20;99.90;;;;;;8388420;28;20265;-74
2023/05/22 07:59:48;;;;;;;;;;;19.30;99.90;;;;;;8383121;28;20330;-74
2023/05/22 08:03:49;;;;;;;;;;;19.30;99.90;;;;;;8383747;28;19994;-74
2023/05/22 08:07:51;;;;;;;;;;;19.40;99.90;;;;;;8367251;28;20336;-75
2023/05/22 08:11:53;;;;;;;;;;;19.60;99.90;;;;;;8384941;28;20303;-74
2023/05/22 08:15:55;;;;;;;;;;;19.60;99.90;;;;;;8385668;28;20292;-73
2023/05/22 08:20:01;;;;;;;;;;;19.70;99.90;;;;;;8375373;28;20280;-74
2023/05/22 08:24:03;;;;;;;;;;;19.90;99.90;;;;;;8372701;28;19929;-74
2023/05/22 08:28:05;;;;;;;;;;;19.90;99.90;;;;;;8363720;28;19924;-74
2023/05/22 08:32:06;;;;;;;;;;;20.10;99.90;;;;;;8368794;28;20326;-73
2023/05/22 08:36:08;;;;;;;;;;;20.10;99.90;;;;;;8386589;28;19935;-74
2023/05/22 08:40:11;;;;;;;;;;;20.20;99.90;;;;;;8373254;28;19926;-74
2023/05/22 08:44:13;;;;;;;;;;;20.30;99.90;;;;;;8378030;28;20331;-74
2023/05/22 08:48:17;;;;;;;;;;;20.30;99.90;;;;;;8392215;28;19924;-74
2023/05/22 08:52:22;;;;;;;;;;;20.40;99.90;;;;;;8383858;28;19970;-74
2023/05/22 08:56:24;;;;;;;;;;;20.50;99.90;;;;;;8390073;28;19932;-74
2023/05/22 09:00:29;;;;;;;;;;;20.70;99.90;;;;;;8388779;28;19925;-73
2023/05/22 09:04:30;;;;;;;;;;;20.70;99.90;;;;;;8378484;28;19931;-74
2023/05/22 09:08:32;;;;;;;;;;;20.80;99.90;;;;;;8376047;28;19932;-75
2023/05/22 09:12:34;;;;;;;;;;;20.70;99.90;;;;;;8372511;28;19932;-74
2023/05/22 09:16:45;;;;;;;;;;;20.80;99.90;;;;;;8363996;28;19928;-74
2023/05/22 09:20:47;;;;;;;;;;;20.90;99.90;;;;;;8364014;28;19932;-74
2023/05/22 09:24:48;;;;;;;;;;;21.00;99.90;;;;;;8354730;28;19924;-74
2023/05/22 09:28:50;;;;;;;;;;;21.10;99.90;;;;;;8351417;28;19924;-73
2023/05/22 09:32:53;;;;;;;;;;;21.20;99.90;;;;;;8347085;28;19978;-74
2023/05/22 09:37:04;;;;;;;;;;;21.30;99.90;;;;;;8367053;28;19935;-74
2023/05/22 09:41:06;;;;;;;;;;;21.40;99.90;;;;;;8363656;28;19983;-74
2023/05/22 09:45:08;;;;;;;;;;;21.50;99.90;;;;;;8365311;28;19929;-74
2023/05/22 09:49:09;;;;;;;;;;;21.70;99.90;;;;;;8361334;28;19978;-74
2023/05/22 09:53:15;;;;;;;;;;;21.80;99.90;;;;;;8365490;28;20533;-74
2023/05/22 09:57:18;;;;;;;;;;;21.80;99.90;;;;;;8365111;28;19973;-75
2023/05/22 10:01:20;;;;;;;;;;;21.80;99.90;;;;;;8356713;28;19951;-74
2023/05/22 10:05:23;;;;;;;;;;;21.90;99.90;;;;;;8361789;28;19970;-74
2023/05/22 10:09:29;;;;;;;;;;;21.90;99.90;;;;;;8364314;28;19932;-74
2023/05/22 10:13:31;;;;;;;;;;;22.10;99.90;;;;;;8370794;28;20027;-74
2023/05/22 10:17:33;;;;;;;;;;;22.20;99.90;;;;;;8371359;28;20006;-75
2023/05/22 10:21:35;;;;;;;;;;;22.40;99.90;;;;;;8373912;28;19928;-74
2023/05/22 10:25:37;;;;;;;;;;;22.60;99.90;;;;;;8365077;28;19959;-74
2023/05/22 10:29:43;;;;;;;;;;;22.70;99.90;;;;;;8376772;28;19925;-75
2023/05/22 10:33:47;;;;;;;;;;;22.80;99.90;;;;;;8364696;28;19925;-75
2023/05/22 10:37:50;;;;;;;;;;;22.80;99.90;;;;;;8376259;28;20300;-74
2023/05/22 10:41:52;;;;;;;;;;;22.70;99.90;;;;;;8372408;28;19978;-74
2023/05/22 10:46:01;;;;;;;;;;;22.60;99.90;;;;;;8372071;28;20074;-75
2023/05/22 10:50:02;;;;;;;;;;;22.60;99.90;;;;;;8369493;28;19925;-74
2023/05/22 10:54:04;;;;;;;;;;;22.60;99.90;;;;;;8368401;28;19928;-74
2023/05/22 10:58:11;;;;;;;;;;;22.80;99.90;;;;;;8368505;28;19925;-74
2023/05/22 11:02:20;;;;;;;;;;;23.00;99.90;;;;;;8368114;28;19978;-75
2023/05/22 11:06:38;;;;;;;;;;;23.00;99.90;;;;;;8372021;28;20340;-74
2023/05/22 11:10:52;;;;;;;;;;;23.00;99.90;;;;;;8369010;28;19925;-75
2023/05/22 11:15:04;;;;;;;;;;;22.90;99.90;;;;;;8360788;28;19939;-74
2023/05/22 11:19:07;;;;;;;;;;;22.90;99.90;;;;;;8370880;28;19925;-75
2023/05/22 11:23:23;;;;;;;;;;;23.00;99.90;;;;;;8371602;28;20212;-75
2023/05/22 11:27:25;;;;;;;;;;;22.90;99.90;;;;;;8373936;28;19925;-75
2023/05/22 11:31:28;;;;;;;;;;;22.90;99.90;;;;;;8366801;28;19990;-75
2023/05/22 11:35:30;;;;;;;;;;;22.90;99.90;;;;;;8369254;28;19929;-75
2023/05/22 11:39:31;;;;;;;;;;;22.90;99.90;;;;;;8364133;28;19925;-75
2023/05/22 11:43:35;;;;;;;;;;;23.00;99.90;;;;;;8366612;28;20041;-75
2023/05/22 11:47:37;;;;;;;;;;;23.20;99.90;;;;;;8369066;28;19928;-74
2023/05/22 11:51:39;;;;;;;;;;;23.30;99.90;;;;;;8366821;28;19925;-74
2023/05/22 11:55:41;;;;;;;;;;;23.40;99.90;;;;;;8366612;28;19932;-75
2023/05/22 11:59:46;;;;;;;;;;;23.50;99.90;;;;;;8366246;28;19956;-75
2023/05/22 12:03:48;;;;;;;;;;;23.50;99.90;;;;;;8368118;28;19925;-75
2023/05/22 12:07:49;;;;;;;;;;;23.40;99.90;;;;;;8364739;28;19973;-75
2023/05/22 12:11:53;;;;;;;;;;;23.40;99.90;;;;;;8366463;28;20392;-75
2023/05/22 12:15:59;;;;;;;;;;;23.50;99.90;;;;;;8364005;28;19939;-75
2023/05/22 12:20:02;;;;;;;;;;;23.60;99.90;;;;;;8367828;28;20152;-75
2023/05/22 12:24:04;;;;;;;;;;;23.60;99.90;;;;;;8368058;28;19929;-75
2023/05/22 12:28:06;;;;;;;;;;;23.60;99.90;;;;;;8363592;28;19970;-75
2023/05/22 12:32:09;;;;;;;;;;;23.80;99.90;;;;;;8368191;28;19980;-75
2023/05/22 12:36:11;;;;;;;;;;;23.80;99.90;;;;;;8369579;28;19924;-74
2023/05/22 12:40:13;;;;;;;;;;;23.90;99.90;;;;;;8367288;28;19924;-75
2023/05/22 12:44:15;;;;;;;;;;;23.90;99.90;;;;;;8363192;28;19932;-74
2023/05/22 12:48:18;;;;;;;;;;;24.00;99.90;;;;;;8361870;28;19987;-74
2023/05/22 12:52:20;;;;;;;;;;;24.10;99.90;;;;;;8363276;28;20450;-75
2023/05/22 12:56:22;;;;;;;;;;;24.20;99.90;;;;;;8365468;28;20336;-74
2023/05/22 13:00:24;;;;;;;;;;;24.20;99.90;;;;;;8373868;28;19979;-74
2023/05/22 13:04:25;;;;;;;;;;;24.20;99.90;;;;;;8372570;28;19932;-74
2023/05/22 13:08:27;;;;;;;;;;;24.20;99.90;;;;;;8362934;28;19931;-74
2023/05/22 13:12:31;;;;;;;;;;;24.10;99.90;;;;;;8363454;28;19939;-74
2023/05/22 13:16:32;;;;;;;;;;;24.20;99.90;;;;;;8367137;28;20142;-74
2023/05/22 13:20:37;;;;;;;;;;;24.30;99.90;;;;;;8369654;28;19963;-74
2023/05/22 13:24:38;;;;;;;;;;;24.40;99.90;;;;;;8369600;28;19931;-74
2023/05/22 13:28:40;;;;;;;;;;;24.40;99.90;;;;;;8362213;28;19975;-74
2023/05/22 13:32:41;;;;;;;;;;;24.40;99.90;;;;;;8372014;28;20376;-74
2023/05/22 13:36:43;;;;;;;;;;;24.30;99.90;;;;;;8368576;28;19975;-73
2023/05/22 13:40:45;;;;;;;;;;;24.30;99.90;;;;;;8370183;28;20389;-75
2023/05/22 13:44:48;;;;;;;;;;;24.30;99.90;;;;;;8370577;28;19925;-73
2023/05/22 13:48:50;;;;;;;;;;;24.40;99.90;;;;;;8371416;28;20331;-74
2023/05/22 13:52:52;;;;;;;;;;;24.40;99.90;;;;;;8370884;28;20450;-74
2023/05/22 13:56:56;;;;;;;;;;;24.40;99.90;;;;;;8371414;28;20027;-74
2023/05/22 14:00:58;;;;;;;;;;;24.40;99.90;;;;;;8371154;28;19932;-74
2023/05/22 14:04:59;;;;;;;;;;;24.30;99.90;;;;;;8357848;28;20747;-74
2023/05/22 14:09:02;;;;;;;;;;;24.20;99.90;;;;;;8369854;28;19932;-74
2023/05/22 14:13:03;;;;;;;;;;;24.20;99.90;;;;;;8371724;28;19932;-74
2023/05/22 14:17:06;;;;;;;;;;;24.30;99.90;;;;;;8372363;28;20375;-74
2023/05/22 14:21:09;;;;;;;;;;;24.50;99.90;;;;;;8371114;28;22304;-74
2023/05/22 14:25:11;;;;;;;;;;;24.60;99.90;;;;;;8375287;28;20376;-73
2023/05/22 14:29:12;;;;;;;;;;;24.90;99.90;;;;;;8375335;28;19936;-74
2023/05/22 14:33:14;;;;;;;;;;;25.10;99.90;;;;;;8368972;28;19936;-74
2023/05/22 14:37:17;;;;;;;;;;;25.20;99.90;;;;;;8372542;28;19994;-73
2023/05/22 14:41:20;;;;;;;;;;;25.20;99.90;;;;;;8366445;28;19934;-74
2023/05/22 14:45:22;;;;;;;;;;;25.40;99.90;;;;;;8370167;28;20388;-74
2023/05/22 14:49:24;;;;;;;;;;;25.50;99.90;;;;;;8350728;28;19933;-73
2023/05/22 14:53:25;;;;;;;;;;;25.50;99.90;;;;;;8372856;28;20388;-73
2023/05/22 14:57:27;;;;;;;;;;;25.40;99.90;;;;;;8374643;28;19924;-73
2023/05/22 15:01:29;;;;;;;;;;;25.30;99.90;;;;;;8373287;28;19931;-74
2023/05/22 15:05:30;;;;;;;;;;;25.20;99.90;;;;;;8370207;28;19978;-72
2023/05/22 15:09:32;;;;;;;;;;;25.10;99.90;;;;;;8369361;28;19924;-73
2023/05/22 15:13:34;;;;;;;;;;;24.90;99.90;;;;;;8382389;28;19931;-73
2023/05/22 15:17:35;;;;;;;;;;;24.90;99.90;;;;;;8370355;28;19943;-72
2023/05/22 15:21:37;;;;;;;;;;;24.90;99.90;;;;;;8366795;28;19924;-75
2023/05/22 15:25:39;;;;;;;;;;;25.00;99.90;;;;;;8369461;28;19936;-74
2023/05/22 15:29:40;;;;;;;;;;;25.10;99.90;;;;;;8369797;28;19936;-74
2023/05/22 15:33:42;;;;;;;;;;;25.00;99.90;;;;;;8360991;28;19924;-74
2023/05/22 15:37:44;;;;;;;;;;;25.00;99.90;;;;;;8373174;28;19931;-75
2023/05/22 15:41:46;;;;;;;;;;;25.10;99.90;;;;;;8363239;28;19947;-73
2023/05/22 15:46:03;;;;;;;;;;;25.30;99.90;;;;;;8365791;28;19928;-74
2023/05/22 15:50:05;;;;;;;;;;;25.70;99.90;;;;;;8365262;28;20159;-74
2023/05/22 15:54:08;;;;;;;;;;;26.20;99.90;;;;;;8371062;28;19933;-75
2023/05/22 15:58:10;;;;;;;;;;;26.60;99.90;;;;;;8368895;28;19970;-74
2023/05/22 16:02:11;;;;;;;;;;;27.10;99.90;;;;;;8358330;28;19928;-74
2023/05/22 16:06:13;;;;;;;;;;;27.40;99.90;;;;;;8364806;28;20545;-75
2023/05/22 16:10:15;;;;;;;;;;;27.60;99.90;;;;;;8362509;28;19932;-74
2023/05/22 16:14:16;;;;;;;;;;;27.70;99.90;;;;;;8364170;28;19929;-74
2023/05/22 16:18:20;;;;;;;;;;;27.90;99.90;;;;;;8363184;28;20031;-75
2023/05/22 16:22:22;;;;;;;;;;;28.20;99.90;;;;;;8362155;28;19925;-74
2023/05/22 16:36:33;;;;;;;;;;;28.60;99.90;;;;;;8364811;28;19935;-74
2023/05/22 16:40:36;;;;;;;;;;;28.30;99.90;;;;;;8359479;28;19983;-74
2023/05/22 16:44:38;;;;;;;;;;;28.30;99.90;;;;;;8365704;28;19929;-74
2023/05/22 16:48:40;;;;;;;;;;;28.30;99.90;;;;;;8367439;28;19933;-75
2023/05/22 16:52:41;;;;;;;;;;;28.10;99.90;;;;;;8363533;28;20269;-75
2023/05/22 16:56:43;;;;;;;;;;;28.00;99.90;;;;;;8362693;28;19932;-75
2023/05/22 17:21:07;;;;;;;;;;;26.70;99.90;;;;;;8346860;28;20288;-75
2023/05/22 17:25:09;;;;;;;;;;;26.30;99.90;;;;;;8371799;28;19925;-74
2023/05/22 17:29:11;;;;;;;;;;;25.90;99.90;;;;;;8369551;28;20368;-75
2023/05/22 17:33:13;;;;;;;;;;;25.60;99.90;;;;;;8368345;28;20394;-74
2023/05/22 17:37:15;;;;;;;;;;;25.30;99.90;;;;;;8381552;28;19935;-74
2023/05/22 17:41:16;;;;;;;;;;;25.00;99.90;;;;;;8375830;28;19933;-75
2023/05/22 17:45:18;;;;;;;;;;;24.60;99.90;;;;;;8368708;28;19925;-74
2023/05/22 17:49:20;;;;;;;;;;;24.40;99.90;;;;;;8350555;28;19939;-74
2023/05/22 17:53:21;;;;;;;;;;;24.20;99.90;;;;;;8363277;28;19933;-74
2023/05/22 17:57:24;;;;;;;;;;;24.20;99.90;;;;;;8365197;28;20307;-73
2023/05/22 18:01:27;;;;;;;;;;;24.20;99.90;;;;;;8368945;28;20388;-73
2023/05/22 18:05:29;;;;;;;;;;;24.10;99.90;;;;;;8368035;28;19925;-73
2023/05/22 18:09:31;;;;;;;;;;;24.10;99.90;;;;;;8381705;28;19924;-74
2023/05/22 18:13:33;;;;;;;;;;;24.00;99.90;;;;;;8361531;28;19940;-73
2023/05/22 18:17:34;;;;;;;;;;;24.00;99.90;;;;;;8371056;28;19932;-73
2023/05/22 18:21:36;;;;;;;;;;;23.80;99.90;;;;;;8361880;28;20736;-73
2023/05/22 18:25:38;;;;;;;;;;;23.80;99.90;;;;;;8365726;28;19933;-73
2023/05/22 18:29:40;;;;;;;;;;;23.80;99.90;;;;;;8369507;28;19975;-74
2023/05/22 18:33:43;;;;;;;;;;;23.70;99.90;;;;;;8380696;28;19932;-73
2023/05/22 18:37:45;;;;;;;;;;;23.60;99.90;;;;;;8367676;28;19931;-73
2023/05/22 18:41:47;;;;;;;;;;;23.60;99.90;;;;;;8364261;28;19932;-73
2023/05/22 18:50:55;;;;;;;;;;;23.40;99.90;;;;;;8364459;28;19923;-73
2023/05/22 18:54:57;;;;;;;;;;;23.30;99.90;;;;;;8348353;28;19932;-74
2023/05/22 18:58:58;;;;;;;;;;;23.20;99.90;;;;;;8370782;28;19924;-74
2023/05/22 19:03:00;;;;;;;;;;;23.10;99.90;;;;;;8375452;28;19924;-75
2023/05/22 19:07:02;;;;;;;;;;;23.00;99.90;;;;;;8361187;28;19959;-73
2023/05/22 19:11:04;;;;;;;;;;;22.80;99.90;;;;;;8363575;28;19981;-74
2023/05/22 19:15:06;;;;;;;;;;;22.70;99.90;;;;;;8366462;28;19936;-73
2023/05/22 19:19:10;;;;;;;;;;;22.60;99.90;;;;;;8348554;28;19928;-73
2023/05/22 19:23:12;;;;;;;;;;;22.50;99.90;;;;;;8367972;28;19956;-74
2023/05/22 19:27:14;;;;;;;;;;;22.50;99.90;;;;;;8366210;28;19924;-74
2023/05/22 19:31:16;;;;;;;;;;;22.40;99.90;;;;;;8362526;28;20070;-74
2023/05/22 19:35:18;;;;;;;;;;;22.30;99.90;;;;;;8364650;28;19935;-74
2023/05/22 19:39:19;;;;;;;;;;;22.20;99.90;;;;;;8357961;28;19936;-73
2023/05/22 19:43:21;;;;;;;;;;;22.20;99.90;;;;;;8358809;28;19924;-73
2023/05/22 19:47:23;;;;;;;;;;;22.10;99.90;;;;;;8375941;28;19940;-74
2023/05/22 19:51:25;;;;;;;;;;;22.10;99.90;;;;;;8356945;28;20331;-74
2023/05/22 19:55:27;;;;;;;;;;;22.00;99.90;;;;;;8369430;28;19969;-74
2023/05/22 19:59:28;;;;;;;;;;;21.80;99.90;;;;;;8359078;28;19970;-73
2023/05/22 20:03:30;;;;;;;;;;;21.70;99.90;;;;;;8360819;28;19929;-74
2023/05/22 20:07:32;;;;;;;;;;;21.60;99.90;;;;;;8363814;28;19931;-75
2023/05/22 20:11:33;;;;;;;;;;;21.40;99.90;;;;;;8365147;28;19991;-74
2023/05/22 20:15:36;;;;;;;;;;;21.30;99.90;;;;;;8356863;28;19932;-75
2023/05/22 20:19:38;;;;;;;;;;;21.10;99.90;;;;;;8361066;28;19933;-74
2023/05/22 20:23:39;;;;;;;;;;;21.00;99.90;;;;;;8358950;28;19928;-74
2023/05/22 20:27:41;;;;;;;;;;;20.90;99.90;;;;;;8368902;28;20277;-74
2023/05/22 20:31:44;;;;;;;;;;;20.90;99.90;;;;;;8365807;28;20362;-73
2023/05/22 20:35:47;;;;;;;;;;;20.80;99.90;;;;;;8370584;28;19928;-74
2023/05/22 20:39:50;;;;;;;;;;;20.80;99.90;;;;;;8367694;28;19928;-75
2023/05/22 20:43:57;;;;;;;;;;;20.60;99.90;;;;;;8381526;28;19929;-73
2023/05/22 20:47:59;;;;;;;;;;;20.50;99.90;;;;;;8356222;28;19929;-73
2023/05/22 20:52:01;;;;;;;;;;;20.30;99.90;;;;;;8367233;28;19924;-72
2023/05/22 20:56:03;;;;;;;;;;;20.20;99.90;;;;;;8386096;28;20313;-73
2023/05/22 21:00:08;;;;;;;;;;;20.10;99.90;;;;;;8363440;28;19951;-74
2023/05/22 21:04:10;;;;;;;;;;;20.00;99.90;;;;;;8381305;28;20395;-73
2023/05/22 21:08:11;;;;;;;;;;;19.90;99.90;;;;;;8380650;28;19924;-74
2023/05/22 21:12:13;;;;;;;;;;;19.80;99.90;;;;;;8380607;28;20315;-73
2023/05/22 21:16:15;;;;;;;;;;;19.80;99.90;;;;;;8384889;28;19925;-74
2023/05/22 21:20:16;;;;;;;;;;;19.70;99.90;;;;;;8365675;28;20442;-73
2023/05/22 21:24:19;;;;;;;;;;;19.70;99.90;;;;;;8385443;28;19924;-73
2023/05/22 21:28:21;;;;;;;;;;;19.60;99.90;;;;;;8387916;28;19924;-73
2023/05/22 21:32:22;;;;;;;;;;;19.60;99.90;;;;;;8366821;28;19928;-73
2023/05/22 21:36:24;;;;;;;;;;;19.50;99.90;;;;;;8399151;28;19932;-73
2023/05/22 21:40:26;;;;;;;;;;;19.40;99.90;;;;;;8383501;28;19925;-73
2023/05/22 21:44:28;;;;;;;;;;;19.30;99.90;;;;;;8381402;28;20326;-73
2023/05/22 21:48:30;;;;;;;;;;;19.20;99.90;;;;;;8380541;28;20032;-73
2023/05/22 21:52:31;;;;;;;;;;;19.10;99.90;;;;;;8375943;28;19925;-72
2023/05/22 21:56:33;;;;;;;;;;;19.10;99.90;;;;;;8376773;28;19977;-72
2023/05/22 22:00:35;;;;;;;;;;;19.10;99.90;;;;;;8387047;28;19932;-72
2023/05/22 22:04:36;;;;;;;;;;;19.00;99.90;;;;;;8382766;28;19928;-74
2023/05/22 22:08:38;;;;;;;;;;;19.00;99.90;;;;;;8384897;28;19932;-73
2023/05/22 22:12:40;;;;;;;;;;;18.90;99.90;;;;;;8394451;28;19993;-72
2023/05/22 22:16:43;;;;;;;;;;;18.80;99.90;;;;;;8365875;28;20368;-73
2023/05/22 22:20:44;;;;;;;;;;;18.70;99.90;;;;;;8400081;28;19924;-72
2023/05/22 22:24:46;;;;;;;;;;;18.50;99.90;;;;;;8377276;28;19931;-73
2023/05/22 22:28:48;;;;;;;;;;;18.50;99.90;;;;;;8365967;28;20015;-72
2023/05/22 22:32:51;;;;;;;;;;;18.40;99.90;;;;;;8391044;28;19982;-72
2023/05/22 22:36:52;;;;;;;;;;;18.40;99.90;;;;;;8387887;28;19932;-73
2023/05/22 22:40:54;;;;;;;;;;;18.30;99.90;;;;;;8375423;28;19974;-73
2023/05/22 22:44:56;;;;;;;;;;;18.20;99.90;;;;;;8386495;28;19924;-73
2023/05/22 22:49:00;;;;;;;;;;;18.10;99.90;;;;;;8388547;28;19924;-72
2023/05/22 22:53:02;;;;;;;;;;;18.00;99.90;;;;;;8393495;28;19974;-73
2023/05/22 22:57:04;;;;;;;;;;;17.90;99.90;;;;;;8391111;28;19925;-73
2023/05/22 23:01:05;;;;;;;;;;;17.80;99.90;;;;;;8371145;28;19924;-73
2023/05/22 23:05:07;;;;;;;;;;;17.80;99.90;;;;;;8378332;28;20365;-73
2023/05/22 23:09:13;;;;;;;;;;;17.70;99.90;;;;;;8365222;28;19976;-72
2023/05/22 23:13:15;;;;;;;;;;;17.70;99.90;;;;;;8393330;28;19924;-73
2023/05/22 23:17:16;;;;;;;;;;;17.70;99.90;;;;;;8376900;28;19924;-73
2023/05/22 23:21:18;;;;;;;;;;;17.60;99.90;;;;;;8371537;28;19940;-73
2023/05/22 23:25:20;;;;;;;;;;;17.60;99.90;;;;;;8395071;28;20299;-73
2023/05/22 23:29:21;;;;;;;;;;;17.50;99.90;;;;;;8385444;28;20308;-75
2023/05/22 23:33:23;;;;;;;;;;;17.50;99.90;;;;;;8387096;28;19947;-74
2023/05/22 23:37:25;;;;;;;;;;;17.50;99.90;;;;;;8379821;28;19939;-73
2023/05/22 23:41:26;;;;;;;;;;;17.40;99.90;;;;;;8389227;28;19939;-74
2023/05/22 23:45:28;;;;;;;;;;;17.40;99.90;;;;;;8388736;28;19954;-74
2023/05/22 23:49:30;;;;;;;;;;;17.40;99.90;;;;;;8369440;28;19941;-73
2023/05/22 23:53:31;;;;;;;;;;;17.40;99.90;;;;;;8371201;28;19932;-73
2023/05/22 23:57:33;;;;;;;;;;;17.30;99.90;;;;;;8396638;28;19936;-73
